Time;durP1;ratioP1;P1;durP2;ratioP2;P2;SDS_P1;SDS_P2;PMS_P1;PMS_P2;Temp;Humidity;BMP_temperature;BMP_pressure;BME280_temperature;BME280_humidity;BME280_pressure;Samples;Min_cycle;Max_cycle;Signal;HPM_P1;HPM_P2
2020/12/18 00:00:45;;;;;;;37.60;19.43;;;;;;;6.81;87.27;101701.59;5069731;28;20622;-69
2020/12/18 00:03:10;;;;;;;49.17;20.23;;;;;;;6.82;87.03;101695.31;5070507;28;20287;-69
2020/12/18 00:05:39;;;;;;;36.20;19.77;;;;;;;6.82;87.15;101709.44;5070390;28;20037;-69
2020/12/18 00:08:04;;;;;;;35.70;19.45;;;;;;;6.83;86.91;101697.00;5070534;28;20041;-69
2020/12/18 00:10:29;;;;;;;37.77;19.90;;;;;;;6.81;87.22;101707.72;5070705;28;20115;-69
2020/12/18 00:12:54;;;;;;;42.77;20.83;;;;;;;6.81;87.17;101712.19;5069576;28;20128;-69
2020/12/18 00:15:27;;;;;;;41.37;19.73;;;;;;;6.85;86.74;101711.00;5072369;28;20071;-69
2020/12/18 00:17:52;;;;;;;45.10;19.90;;;;;;;6.80;86.93;101705.22;5073840;28;20111;-69
2020/12/18 00:20:18;;;;;;;44.25;20.33;;;;;;;6.87;87.00;101712.59;5074150;28;20130;-69
2020/12/18 00:22:43;;;;;;;35.70;19.53;;;;;;;6.90;86.59;101711.50;5074065;28;20158;-69
2020/12/18 00:25:08;;;;;;;38.07;19.37;;;;;;;6.84;86.78;101706.69;5072973;28;20453;-69
2020/12/18 00:27:35;;;;;;;43.17;20.70;;;;;;;6.83;86.89;101704.97;5073558;28;20347;-69
2020/12/18 00:30:00;;;;;;;;;;;;;;;6.79;86.74;101708.81;5074430;28;20044;-69
2020/12/18 00:32:25;;;;;;;;;;;;;;;6.67;86.87;101706.13;5056590;28;19912;-69
2020/12/18 00:34:51;;;;;;;45.33;20.33;;;;;;;6.64;87.16;101706.34;5073817;28;19978;-69
2020/12/18 00:37:16;;;;;;;38.00;20.07;;;;;;;6.69;87.13;101712.13;5073515;28;20091;-69
2020/12/18 00:39:41;;;;;;;35.30;19.60;;;;;;;6.67;87.22;101708.78;5073748;28;20043;-69
2020/12/18 00:42:07;;;;;;;33.93;19.27;;;;;;;6.65;87.07;101718.66;5072582;28;20041;-69
2020/12/18 00:44:33;;;;;;;38.83;21.00;;;;;;;6.62;87.18;101718.88;5072533;28;20082;-69
2020/12/18 00:46:58;;;;;;;45.15;20.30;;;;;;;6.62;87.26;101713.56;5072330;28;20044;-69
2020/12/18 00:49:23;;;;;;;49.23;21.13;;;;;;;6.60;87.30;101710.16;5072546;28;20125;-69
2020/12/18 00:51:53;;;;;;;37.10;20.27;;;;;;;6.61;87.26;101706.56;5073554;28;20036;-69
2020/12/18 00:54:18;;;;;;;41.70;19.52;;;;;;;6.59;87.17;101718.25;5072479;28;20373;-69
2020/12/18 00:56:44;;;;;;;34.83;20.50;;;;;;;6.56;87.51;101714.03;5072941;28;20033;-69
2020/12/18 00:59:09;;;;;;;41.77;20.97;;;;;;;6.61;87.04;101716.34;5072433;28;20529;-69
2020/12/18 01:01:34;;;;;;;46.87;20.17;;;;;;;6.59;87.10;101716.44;5073265;28;20040;-69
2020/12/18 01:04:00;;;;;;;40.47;18.88;;;;;;;6.57;87.21;101721.00;5072096;28;20108;-69
2020/12/18 01:06:26;;;;;;;39.05;18.83;;;;;;;6.55;87.42;101723.81;5072798;28;20055;-69
2020/12/18 01:08:57;;;;;;;32.40;17.70;;;;;;;6.59;87.35;101723.56;5072217;28;20052;-69
2020/12/18 01:11:26;;;;;;;41.38;17.48;;;;;;;6.57;86.94;101726.31;5072051;28;20024;-69
2020/12/18 01:13:52;;;;;;;39.72;18.20;;;;;;;6.62;86.71;101731.28;5072041;28;20263;-69
2020/12/18 01:16:18;;;;;;;31.67;17.30;;;;;;;6.64;86.39;101732.88;5072789;28;20136;-69
2020/12/18 01:18:51;;;;;;;36.67;18.65;;;;;;;6.64;86.47;101729.38;5056574;28;20041;-69
2020/12/18 01:21:17;;;;;;;35.57;16.13;;;;;;;6.61;86.42;101725.16;5072967;28;20028;-69
2020/12/18 01:23:42;;;;;;;29.90;15.93;;;;;;;6.60;86.72;101735.88;5071741;28;20352;-69
2020/12/18 01:26:11;;;;;;;38.35;19.95;;;;;;;6.61;86.72;101738.41;5071470;28;20037;-69
2020/12/18 01:28:36;;;;;;;33.47;17.93;;;;;;;6.60;86.74;101743.81;5055080;28;20513;-69
2020/12/18 01:31:02;;;;;;;31.27;16.37;;;;;;;6.59;86.54;101735.03;5071759;28;20036;-69
2020/12/18 01:33:30;;;;;;;34.97;18.00;;;;;;;6.63;86.31;101748.94;5071614;28;20024;-69
2020/12/18 01:35:55;;;;;;;33.47;18.60;;;;;;;6.61;86.33;101746.38;5071384;28;20043;-69
2020/12/18 01:38:20;;;;;;;44.43;17.90;;;;;;;6.61;86.63;101746.38;5071543;28;20032;-69
2020/12/18 01:40:49;;;;;;;38.35;17.85;;;;;;;6.61;86.51;101742.88;5071390;28;20036;-69
2020/12/18 01:43:14;;;;;;;37.30;18.25;;;;;;;6.62;86.56;101749.88;5071591;28;20043;-69
2020/12/18 01:45:43;;;;;;;39.45;17.33;;;;;;;6.64;86.38;101753.25;5070913;28;20068;-69
2020/12/18 01:48:12;;;;;;;35.88;18.88;;;;;;;6.62;86.38;101761.31;5055039;28;20032;-69
2020/12/18 01:50:50;;;;;;;35.28;17.50;;;;;;;6.60;86.56;101757.94;5072138;28;20063;-69
2020/12/18 01:53:19;;;;;;;38.88;18.75;;;;;;;6.60;86.74;101762.41;5071309;28;20123;-69
2020/12/18 01:55:56;;;;;;;36.08;18.35;;;;;;;6.57;86.86;101763.47;5070951;28;20021;-69
2020/12/18 01:58:23;;;;;;;37.90;18.58;;;;;;;6.63;86.73;101765.69;5072201;28;20301;-69
2020/12/18 02:00:49;;;;;;;41.53;18.90;;;;;;;6.61;86.51;101769.41;5071069;28;20040;-69
2020/12/18 02:03:24;;;;;;;31.48;16.38;;;;;;;6.57;86.75;101767.94;5070948;28;20040;-69
2020/12/18 02:06:07;;;;;;;39.42;19.25;;;;;;;6.57;86.88;101763.47;5055589;28;20040;-69
2020/12/18 02:08:49;;;;;;;40.67;18.50;;;;;;;6.59;86.81;101766.88;5070869;28;20032;-69
2020/12/18 02:11:33;;;;;;;28.98;16.35;;;;;;;6.57;86.85;101763.47;5072105;28;20066;-69
2020/12/18 02:14:12;;;;;;;34.80;15.65;;;;;;;6.55;86.78;101768.91;5070842;28;20029;-69
2020/12/18 02:16:38;;;;;;;39.35;18.45;;;;;;;6.54;86.67;101769.84;5053951;28;20029;-69
2020/12/18 02:19:10;;;;;;;40.17;19.20;;;;;;;6.55;86.79;101768.03;5070783;28;20120;-69
2020/12/18 02:21:37;;;;;;;36.63;18.58;;;;;;;6.55;86.48;101768.91;5070492;28;20106;-69
2020/12/18 02:24:06;;;;;;;35.30;15.25;;;;;;;6.59;86.43;101766.88;5070599;28;20042;-69
2020/12/18 02:26:31;;;;;;;40.90;16.20;;;;;;;6.59;86.44;101772.16;5070353;28;20037;-69
2020/12/18 02:28:57;;;;;;;36.33;17.50;;;;;;;6.56;86.39;101769.75;5054188;28;20369;-69
2020/12/18 02:31:29;;;;;;;39.40;18.33;;;;;;;6.53;86.60;101767.28;5070518;28;20481;-69
2020/12/18 02:34:24;;;;;;;32.25;16.55;;;;;;;6.52;86.39;101770.91;5070645;28;20366;-69
2020/12/18 02:36:52;;;;;;;32.28;15.80;;;;;;;6.54;86.26;101776.97;5069611;28;20089;-69
2020/12/18 02:39:17;;;;;;;29.13;15.10;;;;;;;6.49;86.67;101766.69;5053886;28;20032;-69
2020/12/18 02:41:46;;;;;;;31.63;15.45;;;;;;;6.50;85.85;101768.38;5070183;28;20105;-69
2020/12/18 02:44:17;;;;;;;34.30;16.33;;;;;;;6.49;86.10;101765.84;5070375;28;20032;-69
2020/12/18 02:47:21;;;;;;;29.48;15.18;;;;;;;6.51;85.65;101772.72;5009175;28;20045;-69
2020/12/18 02:49:47;;;;;;;30.00;15.43;;;;;;;6.49;85.71;101771.16;4993353;28;20033;-69
2020/12/18 02:52:12;;;;;;;32.77;14.30;;;;;;;6.47;85.88;101770.41;5020915;28;20056;-69
2020/12/18 02:55:06;;;;;;;24.00;12.63;;;;;;;6.44;85.73;101765.31;5071251;28;20044;-69
2020/12/18 02:57:50;;;;;;;36.47;13.50;;;;;;;6.49;85.18;101760.53;5070982;28;20047;-69
2020/12/18 03:00:31;;;;;;;25.95;13.50;;;;;;;6.45;85.30;101759.06;5070346;28;20086;-69
2020/12/18 03:02:56;;;;;;;22.60;10.53;;;;;;;6.47;85.07;101757.16;5070157;28;20036;-69
2020/12/18 03:05:26;;;;;;;26.17;13.57;;;;;;;6.44;85.03;101760.88;5070072;28;20036;-69
2020/12/18 03:08:06;;;;;;;38.75;15.07;;;;;;;6.43;85.28;101756.50;5069987;28;20043;-69
2020/12/18 03:10:32;;;;;;;29.45;13.63;;;;;;;6.45;85.17;101759.06;5070193;28;20228;-69
2020/12/18 03:12:58;;;;;;;30.90;14.67;;;;;;;6.44;84.81;101763.53;5069904;28;20484;-69
2020/12/18 03:15:23;;;;;;;25.40;12.63;;;;;;;6.45;84.82;101765.22;5070005;28;20082;-69
2020/12/18 03:17:57;;;;;;;25.52;13.88;;;;;;;6.42;85.06;101765.44;5069911;28;20082;-69
2020/12/18 03:20:22;;;;;;;29.67;14.07;;;;;;;6.43;84.97;101766.28;5070015;28;20037;-69
2020/12/18 03:23:06;;;;;;;29.65;13.82;;;;;;;6.39;85.04;101767.44;5070093;28;20059;-69
2020/12/18 03:25:57;;;;;;;22.65;12.40;;;;;;;6.37;85.54;101761.41;5070527;28;20052;-69
2020/12/18 03:28:29;;;;;;;31.25;14.60;;;;;;;6.36;85.40;101768.53;5069973;28;20032;-69
2020/12/18 03:30:56;;;;;;;28.60;14.23;;;;;;;6.33;85.52;101769.59;5069887;28;20053;-69
2020/12/18 03:33:22;;;;;;;29.23;14.73;;;;;;;6.32;85.72;101761.72;5053325;28;20127;-69
2020/12/18 03:35:49;;;;;;;37.78;16.88;;;;;;;6.31;85.64;101768.00;5069653;28;20036;-69
2020/12/18 03:38:15;;;;;;;;;;;;;;;6.30;85.88;101776.94;5070331;28;20036;-69
2020/12/18 03:40:41;;;;;;;;;;;;;;;6.30;85.88;101771.63;5070187;28;19912;-69
2020/12/18 03:43:14;;;;;;;35.38;14.98;;;;;;;6.23;85.98;101770.38;5069551;28;19966;-69
2020/12/18 03:45:40;;;;;;;37.13;15.80;;;;;;;6.24;86.17;101778.19;5069525;28;20032;-69
2020/12/18 03:48:21;;;;;;;35.67;16.15;;;;;;;6.24;86.06;101783.50;5055410;28;20279;-69
2020/12/18 03:50:58;;;;;;;32.40;14.73;;;;;;;6.19;86.25;101769.72;5073586;28;20047;-69
2020/12/18 03:53:26;;;;;;;33.42;15.80;;;;;;;6.23;86.33;101773.88;5074520;28;20036;-69
2020/12/18 03:56:05;;;;;;;31.85;16.63;;;;;;;6.25;86.18;101784.34;5073390;28;20578;-69
2020/12/18 03:58:52;;;;;;;35.00;16.05;;;;;;;6.18;86.47;101781.31;5073499;28;20033;-69
2020/12/18 04:01:37;;;;;;;26.92;12.63;;;;;;;6.13;86.57;101770.16;5074270;28;20055;-69
2020/12/18 04:04:03;;;;;;;32.55;15.80;;;;;;;6.09;86.77;101779.31;5072972;28;20044;-69
2020/12/18 04:06:29;;;;;;;;;;;;;;;6.15;86.69;101785.97;5073472;28;20136;-69
2020/12/18 04:08:55;;;;;;;;;;;;;;;6.10;86.84;101791.59;5057034;28;20003;-69
2020/12/18 04:11:31;;;;;;;31.35;15.52;;;;;;;6.08;86.80;101789.03;5073236;28;20298;-69
2020/12/18 04:14:08;;;;;;;;;;;;;;;6.03;87.05;101788.50;5073573;28;20039;-69
2020/12/18 04:16:47;;;;;;;34.85;18.10;;;;;;;6.01;87.10;101792.22;5072856;28;19927;-69
2020/12/18 04:19:13;;;;;;;39.63;17.67;;;;;;;6.04;86.96;101781.41;5056426;28;20381;-68
2020/12/18 04:21:38;;;;;;;34.80;17.87;;;;;;;6.02;87.04;101778.03;5074101;28;20115;-69
2020/12/18 04:24:16;;;;;;;32.72;16.58;;;;;;;5.91;87.16;101782.25;5072737;28;20283;-69
2020/12/18 04:26:44;;;;;;;31.73;16.80;;;;;;;5.84;87.49;101777.47;5072741;28;20024;-69
2020/12/18 04:29:10;;;;;;;40.97;16.88;;;;;;;5.85;87.54;101782.69;5072806;28;20032;-69
2020/12/18 04:31:37;;;;;;;34.15;17.15;;;;;;;5.88;87.66;101786.91;5072903;28;20349;-69
2020/12/18 04:34:03;;;;;;;39.90;18.77;;;;;;;5.89;87.64;101793.91;5056260;28;20036;-69
2020/12/18 04:36:51;;;;;;;33.33;16.92;;;;;;;5.92;87.58;101793.69;5072879;28;20093;-69
2020/12/18 04:39:22;;;;;;;45.10;19.38;;;;;;;5.87;87.83;101799.31;5072787;28;20173;-69
2020/12/18 04:41:48;;;;;;;40.58;17.85;;;;;;;5.88;87.58;101794.88;5072673;28;20039;-69
2020/12/18 04:44:17;;;;;;;35.75;18.20;;;;;;;5.86;87.64;101792.31;5072381;28;20040;-69
2020/12/18 04:46:50;;;;;;;34.17;16.90;;;;;;;5.89;87.74;101792.09;5056616;28;20024;-69
2020/12/18 04:49:18;;;;;;;38.85;18.95;;;;;;;5.84;87.71;101796.88;5055799;28;20117;-68
2020/12/18 04:51:47;;;;;;;35.50;17.83;;;;;;;5.85;88.19;101795.94;5072505;28;20042;-69
2020/12/18 04:54:27;;;;;;;38.92;19.65;;;;;;;5.84;88.07;101798.69;5072481;28;20033;-69
2020/12/18 04:56:58;;;;;;;46.13;20.25;;;;;;;5.90;88.00;101787.66;5056273;28;20158;-69
2020/12/18 04:59:27;;;;;;;41.17;17.70;;;;;;;5.91;87.87;101794.66;5055792;28;20500;-69
2020/12/18 05:02:02;;;;;;;40.50;17.67;;;;;;;5.91;88.35;101792.84;5073307;28;20029;-69
2020/12/18 05:04:40;;;;;;;39.47;19.77;;;;;;;5.93;87.87;101787.44;5072993;28;20072;-69
2020/12/18 05:07:20;;;;;;;50.63;21.63;;;;;;;5.93;87.95;101782.97;5057356;28;20051;-69
2020/12/18 05:09:51;;;;;;;44.35;20.13;;;;;;;5.99;87.91;101783.53;5072251;28;20090;-69
2020/12/18 05:12:22;;;;;;;43.47;21.92;;;;;;;5.96;87.86;101779.31;5072183;28;20067;-69
2020/12/18 05:14:48;;;;;;;37.15;19.05;;;;;;;5.98;88.04;101788.00;5072112;28;20032;-69
2020/12/18 05:17:30;;;;;;;43.08;20.00;;;;;;;5.99;87.71;101780.88;5071829;28;20066;-68
2020/12/18 05:19:56;;;;;;;52.83;21.13;;;;;;;6.00;87.67;101779.94;5071929;28;20545;-69
2020/12/18 05:22:54;;;;;;;43.33;20.60;;;;;;;5.97;87.54;101773.06;5039072;28;20033;-69
2020/12/18 05:25:33;;;;;;;46.03;19.85;;;;;;;6.00;87.68;101775.50;5071493;28;20036;-68
2020/12/18 05:28:03;;;;;;;44.05;20.98;;;;;;;5.98;87.74;101782.69;5055413;28;20064;-69
2020/12/18 05:30:29;;;;;;;45.67;21.30;;;;;;;5.95;87.63;101776.75;5071756;28;20242;-69
2020/12/18 05:33:27;;;;;;;39.28;20.67;;;;;;;5.95;87.80;101777.63;5071841;28;20040;-69
2020/12/18 05:36:25;;;;;;;44.83;20.92;;;;;;;5.94;87.84;101783.84;5072123;28;20044;-69
2020/12/18 05:38:52;;;;;;;45.00;19.45;;;;;;;5.90;87.97;101780.56;5071629;28;20413;-69
2020/12/18 05:41:26;;;;;;;44.47;21.67;;;;;;;5.92;87.71;101789.25;5071533;28;20024;-69
2020/12/18 05:43:53;;;;;;;;;;;;;;;5.97;87.56;101785.44;5071959;28;20036;-69
2020/12/18 05:46:44;;;;;;;44.58;21.15;;;;;;;5.97;87.63;101782.78;5072014;28;19995;-69
2020/12/18 05:49:39;;;;;;;49.78;22.10;;;;;;;5.95;87.83;101792.66;5071396;28;20572;-69
2020/12/18 05:52:20;;;;;;;44.97;19.92;;;;;;;5.96;87.68;101789.06;5071327;28;20078;-69
2020/12/18 05:55:01;;;;;;;44.13;20.52;;;;;;;5.96;87.52;101789.06;5071110;28;20047;-69
2020/12/18 05:57:39;;;;;;;46.88;21.13;;;;;;;5.93;87.68;101788.28;5070961;28;20028;-69
2020/12/18 06:00:11;;;;;;;42.80;20.25;;;;;;;5.96;87.59;101789.06;5071157;28;20106;-69
2020/12/18 06:02:58;;;;;;;40.22;19.75;;;;;;;5.95;87.36;101787.34;5070701;28;20040;-69
2020/12/18 06:05:38;;;;;;;42.65;21.38;;;;;;;5.95;87.65;101784.69;5070711;28;20058;-69
2020/12/18 06:08:17;;;;;;;42.08;20.80;;;;;;;5.96;87.40;101783.75;5056036;28;20105;-69
2020/12/18 06:10:49;;;;;;;36.08;20.33;;;;;;;5.91;87.54;101784.03;5071043;28;20039;-69
2020/12/18 06:13:24;;;;;;;38.70;18.63;;;;;;;5.95;87.50;101792.66;5070148;28;20599;-69
2020/12/18 06:16:09;;;;;;;52.00;19.33;;;;;;;5.91;87.45;101787.53;5070707;28;20032;-69
2020/12/18 06:18:46;;;;;;;33.88;18.20;;;;;;;5.93;87.35;101792.75;5070826;28;20093;-69
2020/12/18 06:21:22;;;;;;;31.98;18.42;;;;;;;5.96;87.27;101791.72;5070819;28;20029;-69
2020/12/18 06:23:49;;;;;;;36.97;17.60;;;;;;;5.92;87.16;101786.59;5070678;28;20067;-69
2020/12/18 06:26:52;;;;;;;35.78;18.38;;;;;;;5.95;87.15;101790.00;5064802;28;20048;-69
2020/12/18 06:29:30;;;;;;;36.15;18.05;;;;;;;5.96;87.25;101789.91;5070703;28;20047;-69
2020/12/18 06:32:30;;;;;;;36.25;17.38;;;;;;;5.98;86.79;101795.09;5070618;28;20048;-69
2020/12/18 06:35:34;;;;;;;34.35;17.88;;;;;;;5.91;87.21;101787.53;5071525;28;20050;-69
2020/12/18 06:38:26;;;;;;;36.30;17.95;;;;;;;5.88;87.20;101795.72;5071241;28;20044;-69
2020/12/18 06:41:22;;;;;;;34.67;17.08;;;;;;;5.84;87.02;101788.91;5071697;28;20040;-69
2020/12/18 06:44:36;;;;;;;32.78;18.48;;;;;;;5.78;87.26;101786.69;5071324;28;20102;-69
2020/12/18 06:47:34;;;;;;;36.22;19.27;;;;;;;5.72;87.31;101777.38;5070871;28;20075;-69
2020/12/18 06:50:19;;;;;;;39.42;19.48;;;;;;;5.68;87.52;101785.63;5071398;28;20055;-69
2020/12/18 06:53:05;;;;;;;32.85;17.13;;;;;;;5.71;87.39;101785.41;5070319;28;20143;-69
2020/12/18 06:55:42;;;;;;;36.72;20.42;;;;;;;5.63;87.45;101787.75;5070057;28;20133;-69
2020/12/18 06:58:32;;;;;;;35.28;17.95;;;;;;;5.57;87.73;101789.03;5069713;28;20107;-69
2020/12/18 07:00:59;;;;;;;39.10;19.77;;;;;;;5.53;87.62;101789.34;5068698;28;20044;-69
2020/12/18 07:03:41;;;;;;;31.00;18.02;;;;;;;5.46;87.77;101786.25;5068674;28;20128;-69
2020/12/18 07:06:10;;;;;;;33.35;18.80;;;;;;;5.40;87.97;101798.09;5068830;28;20106;-69
2020/12/18 07:08:37;;;;;;;36.28;20.35;;;;;;;5.42;87.61;101796.19;5068194;28;20036;-69
2020/12/18 07:11:14;;;;;;;33.90;17.40;;;;;;;5.39;87.27;101791.13;5069070;28;20880;-69
2020/12/18 07:13:41;;;;;;;34.58;17.60;;;;;;;5.37;87.44;101792.19;5068320;28;20395;-69
2020/12/18 07:16:12;;;;;;;38.13;19.55;;;;;;;5.33;87.56;101791.53;5069504;28;20017;-69
2020/12/18 07:18:43;;;;;;;35.05;18.42;;;;;;;5.33;87.21;101786.22;5070160;28;20029;-69
2020/12/18 07:21:13;;;;;;;30.67;17.98;;;;;;;5.33;86.99;101793.31;5071159;28;20041;-69
2020/12/18 07:23:41;;;;;;;37.55;20.13;;;;;;;5.26;87.29;101795.53;5055079;28;20079;-69
2020/12/18 07:26:08;;;;;;;39.53;19.42;;;;;;;5.15;87.86;101793.63;5073746;28;20021;-69
2020/12/18 07:28:39;;;;;;;48.42;21.05;;;;;;;5.08;88.27;101795.81;5075025;28;20044;-69
2020/12/18 07:31:14;;;;;;;46.70;22.27;;;;;;;5.00;88.23;101784.88;5074071;28;20441;-69
2020/12/18 07:33:39;;;;;;;40.63;22.60;;;;;;;4.93;88.96;101786.22;5074990;28;20036;-69
2020/12/18 07:36:05;;;;;;;41.70;21.40;;;;;;;4.87;88.83;101786.63;5073679;28;20071;-69
2020/12/18 07:38:32;;;;;;;41.70;22.80;;;;;;;4.90;88.77;101789.06;5074859;28;20511;-69
2020/12/18 07:41:06;;;;;;;48.15;23.30;;;;;;;4.79;89.03;101794.22;5073761;28;20143;-69
2020/12/18 07:43:33;;;;;;;45.00;21.83;;;;;;;4.81;89.11;101797.63;5074652;28;20037;-69
2020/12/18 07:46:03;;;;;;;42.85;22.17;;;;;;;4.81;89.16;101794.97;5074356;28;20044;-69
2020/12/18 07:48:30;;;;;;;43.10;20.83;;;;;;;4.79;88.76;101796.84;5074642;28;20045;-69
2020/12/18 07:51:03;;;;;;;50.30;22.52;;;;;;;4.82;88.87;101792.22;5074677;28;20047;-69
2020/12/18 07:53:30;;;;;;;44.22;22.33;;;;;;;4.82;88.85;101801.94;5074530;28;20127;-69
2020/12/18 07:56:05;;;;;;;48.35;22.75;;;;;;;4.79;88.65;101797.69;5074333;28;20090;-70
2020/12/18 07:58:31;;;;;;;46.72;22.10;;;;;;;4.77;88.72;101796.09;5074470;28;20086;-70
2020/12/18 08:01:08;;;;;;;37.53;20.95;;;;;;;4.82;88.69;101804.59;5074308;28;20048;-70
2020/12/18 08:03:33;;;;;;;42.83;22.67;;;;;;;4.80;88.60;101798.53;5074222;28;20048;-70
2020/12/18 08:06:03;;;;;;;40.13;20.38;;;;;;;4.82;88.69;101801.94;5072982;28;20029;-69
2020/12/18 08:08:30;;;;;;;42.50;21.85;;;;;;;4.87;88.42;101805.16;5073354;28;20032;-69
2020/12/18 08:11:00;;;;;;;45.40;22.40;;;;;;;4.84;88.38;101805.34;5073320;28;20048;-69
2020/12/18 08:13:26;;;;;;;43.75;22.42;;;;;;;4.86;88.21;101800.81;5073183;28;20033;-69
2020/12/18 08:16:05;;;;;;;38.63;21.05;;;;;;;4.85;88.33;101796.47;5073844;28;20350;-69
2020/12/18 08:18:32;;;;;;;40.33;21.80;;;;;;;4.83;88.30;101790.44;5074122;28;20036;-69
2020/12/18 08:20:57;;;;;;;36.75;20.85;;;;;;;4.88;88.34;101798.06;5073123;28;20549;-69
2020/12/18 08:23:25;;;;;;;41.90;21.83;;;;;;;4.88;88.13;101788.31;5074117;28;20131;-69
2020/12/18 08:25:51;;;;;;;36.45;21.20;;;;;;;4.91;88.24;101793.41;5072706;28;20070;-69
2020/12/18 08:28:18;;;;;;;42.10;20.38;;;;;;;4.90;88.05;101788.22;5073975;28;20097;-69
2020/12/18 08:30:45;;;;;;;38.80;19.17;;;;;;;4.93;87.85;101794.16;5072139;28;20339;-69
2020/12/18 08:33:16;;;;;;;40.53;19.58;;;;;;;5.00;87.67;101791.97;5056131;28;20046;-69
2020/12/18 08:35:42;;;;;;;30.92;19.02;;;;;;;5.01;87.53;101797.16;5071731;28;20442;-69
2020/12/18 08:38:09;;;;;;;45.53;21.23;;;;;;;5.05;87.41;101788.06;5072967;28;20036;-69
2020/12/18 08:40:40;;;;;;;35.42;19.08;;;;;;;5.30;86.63;101789.09;5072282;28;20373;-69
2020/12/18 08:43:05;;;;;;;38.15;18.52;;;;;;;5.23;86.43;101791.28;5073638;28;20104;-69
2020/12/18 08:45:31;;;;;;;32.50;17.43;;;;;;;5.44;85.81;101782.88;5071848;28;20466;-69
2020/12/18 08:47:56;;;;;;;31.03;17.57;;;;;;;5.60;84.79;101787.97;5072388;28;20491;-69
2020/12/18 08:50:22;;;;;;;34.67;19.00;;;;;;;5.56;85.06;101784.66;5071655;28;20035;-69
2020/12/18 08:52:48;;;;;;;39.75;18.23;;;;;;;5.43;85.15;101781.16;5072349;28;20040;-69
2020/12/18 08:55:14;;;;;;;35.23;18.10;;;;;;;5.56;84.51;101787.31;5055901;28;20442;-69
2020/12/18 08:57:40;;;;;;;33.83;17.50;;;;;;;5.42;85.38;101800.66;5072988;28;20046;-69
2020/12/18 09:00:10;;;;;;;29.52;17.67;;;;;;;5.60;85.00;101806.53;5070589;28;20032;-69
2020/12/18 09:02:39;;;;;;;30.40;16.40;;;;;;;5.75;84.47;101808.09;5070387;28;20047;-68
2020/12/18 09:05:13;;;;;;;34.67;17.90;;;;;;;6.02;83.49;101804.56;5070486;28;20470;-69
2020/12/18 09:07:40;;;;;;;29.65;16.10;;;;;;;6.12;82.50;101800.28;5053560;28;20040;-69
2020/12/18 09:10:06;;;;;;;28.05;14.77;;;;;;;6.32;81.79;101799.75;5071469;28;20059;-69
2020/12/18 09:12:47;;;;;;;28.02;14.85;;;;;;;6.13;82.05;101807.28;5070228;28;20071;-69
2020/12/18 09:15:20;;;;;;;33.60;15.38;;;;;;;6.09;82.33;101805.81;5072757;28;20020;-69
2020/12/18 09:17:45;;;;;;;36.53;15.85;;;;;;;6.02;82.46;101801.91;5072498;28;20086;-69
2020/12/18 09:20:23;;;;;;;34.67;15.60;;;;;;;6.34;82.48;101804.91;5072952;28;20036;-69
2020/12/18 09:22:59;;;;;;;26.27;13.20;;;;;;;6.88;80.13;101806.34;5071806;28;20040;-69
2020/12/18 09:25:25;;;;;;;28.92;14.45;;;;;;;6.90;79.20;101812.38;5055330;28;20481;-69
2020/12/18 09:27:55;;;;;;;29.27;13.52;;;;;;;6.62;80.29;101811.75;5072495;28;20066;-69
2020/12/18 09:30:28;;;;;;;24.40;12.57;;;;;;;7.20;78.44;101825.22;5072872;28;20036;-69
2020/12/18 09:33:27;;;;;;;23.58;14.13;;;;;;;7.49;78.79;101820.38;5071733;28;20032;-69
2020/12/18 09:36:07;;;;;;;30.42;14.10;;;;;;;6.75;79.52;101830.28;5060117;28;20052;-69
2020/12/18 09:38:47;;;;;;;23.30;13.55;;;;;;;7.26;79.18;101827.44;5071723;28;20046;-69
2020/12/18 09:41:14;;;;;;;24.45;13.60;;;;;;;7.00;79.17;101831.13;5071641;28;20115;-69
2020/12/18 09:43:39;;;;;;;19.77;13.23;;;;;;;6.92;79.39;101831.72;5071212;28;20086;-69
2020/12/18 09:46:11;;;;;;;26.13;13.55;;;;;;;6.37;81.26;101817.09;5070545;28;20028;-69
2020/12/18 09:48:38;;;;;;;26.48;11.50;;;;;;;6.63;80.87;101824.06;5054258;28;20424;-69
2020/12/18 09:51:03;;;;;;;26.65;12.48;;;;;;;7.11;78.89;101815.28;5071447;28;20056;-68
2020/12/18 09:53:28;;;;;;;22.50;11.77;;;;;;;7.15;79.41;101817.59;5072107;28;20409;-69
2020/12/18 09:55:54;;;;;;;19.93;10.67;;;;;;;7.75;76.75;101813.06;5072055;28;20028;-69
2020/12/18 09:58:20;;;;;;;20.13;11.17;;;;;;;7.79;76.29;101803.03;5072057;28;20043;-69
2020/12/18 10:00:46;;;;;;;23.33;12.38;;;;;;;7.35;77.96;101797.50;5054482;28;20115;-69
2020/12/18 10:03:11;;;;;;;27.70;11.97;;;;;;;7.63;76.25;101794.53;5071945;28;20066;-69
2020/12/18 10:05:37;;;;;;;22.37;12.37;;;;;;;7.56;77.12;101810.97;5071522;28;20052;-69
2020/12/18 10:08:02;;;;;;;27.00;11.53;;;;;;;7.90;76.31;101802.22;5071180;28;20040;-69
2020/12/18 10:10:29;;;;;;;16.13;10.65;;;;;;;8.03;74.88;101801.16;5071821;28;20040;-69
2020/12/18 10:12:54;;;;;;;17.15;9.48;;;;;;;8.28;75.30;101799.19;5071698;28;20044;-69
2020/12/18 10:15:20;;;;;;;18.77;9.27;;;;;;;8.66;72.94;101792.63;5070812;28;20504;-69
2020/12/18 10:17:45;;;;;;;22.38;10.23;;;;;;;7.94;74.77;101793.88;5053845;28;20327;-69
2020/12/18 10:20:10;;;;;;;20.37;8.50;;;;;;;7.91;75.44;101788.78;5071644;28;20036;-69
2020/12/18 10:22:36;;;;;;;19.57;8.80;;;;;;;8.11;74.86;101794.38;5071682;28;20181;-69
2020/12/18 10:25:01;;;;;;;16.10;9.60;;;;;;;7.77;76.13;101794.34;5071600;28;20057;-69
2020/12/18 10:27:27;;;;;;;16.07;7.97;;;;;;;7.94;75.80;101804.53;5070227;28;20071;-69
2020/12/18 10:29:54;;;;;;;10.23;6.10;;;;;;;8.15;74.62;101806.47;5053931;28;20032;-69
2020/12/18 10:32:20;;;;;;;14.98;8.10;;;;;;;8.13;75.23;101803.91;5070588;28;20040;-69
2020/12/18 10:34:45;;;;;;;15.65;8.32;;;;;;;7.51;76.68;101813.13;5070536;28;20046;-69
2020/12/18 10:37:11;;;;;;;16.93;7.83;;;;;;;8.08;75.11;101810.56;5071341;28;20033;-69
2020/12/18 10:39:36;;;;;;;12.60;7.03;;;;;;;8.36;74.04;101810.09;5070359;28;20043;-69
2020/12/18 10:42:05;;;;;;;17.17;6.90;;;;;;;8.23;74.78;101799.56;5071250;28;20048;-68
2020/12/18 10:44:31;;;;;;;12.20;6.95;;;;;;;8.21;74.61;101795.31;5071245;28;20107;-69
2020/12/18 10:46:56;;;;;;;13.93;7.53;;;;;;;8.08;74.84;101794.59;5069966;28;20468;-69
2020/12/18 10:49:21;;;;;;;17.93;7.73;;;;;;;8.85;73.41;101795.50;5071372;28;20043;-69
2020/12/18 10:51:47;;;;;;;12.37;6.13;;;;;;;8.21;73.89;101793.50;5071152;28;20048;-69
2020/12/18 10:54:13;;;;;;;16.97;7.47;;;;;;;8.41;74.20;101789.31;5070551;28;20057;-69
2020/12/18 10:56:43;;;;;;;13.77;7.05;;;;;;;8.03;74.47;101785.19;5069695;28;20089;-68
2020/12/18 10:59:09;;;;;;;14.55;6.63;;;;;;;8.59;73.37;101783.47;5070861;28;20078;-69
2020/12/18 11:01:35;;;;;;;;;;;;;;;9.30;71.13;101792.66;5071585;28;20481;-69
2020/12/18 11:04:01;;;;;;;10.23;5.37;;;;;;;9.48;70.14;101789.41;5070107;28;19999;-69
2020/12/18 11:06:26;;;;;;;11.85;5.47;;;;;;;8.87;71.63;101780.25;5070783;28;20632;-69
2020/12/18 11:08:52;;;;;;;11.30;5.33;;;;;;;8.85;72.46;101768.03;5071179;28;20029;-69
2020/12/18 11:11:17;;;;;;;11.03;4.90;;;;;;;9.20;71.35;101777.56;5070871;28;20377;-69
2020/12/18 11:13:42;;;;;;;14.40;5.73;;;;;;;8.42;73.18;101777.69;5070132;28;20470;-69
2020/12/18 11:16:08;;;;;;;12.83;5.57;;;;;;;8.59;73.15;101789.66;5070789;28;20092;-69
2020/12/18 11:18:34;;;;;;;13.23;5.00;;;;;;;8.67;72.63;101786.34;5070130;28;20047;-69
2020/12/18 11:21:07;;;;;;;10.60;6.05;;;;;;;8.65;72.78;101786.47;5070904;28;20044;-69
2020/12/18 11:23:32;;;;;;;13.20;5.00;;;;;;;8.78;72.34;101799.66;5069927;28;20148;-69
2020/12/18 11:25:58;;;;;;;8.83;4.70;;;;;;;8.61;72.80;101794.84;5070456;28;20725;-69
2020/12/18 11:28:23;;;;;;;11.27;5.18;;;;;;;8.74;72.72;101792.03;5070939;28;20047;-69
2020/12/18 11:30:49;;;;;;;10.73;5.17;;;;;;;8.75;72.42;101789.22;5070945;28;20048;-69
2020/12/18 11:33:14;;;;;;;12.43;5.20;;;;;;;8.77;71.99;101787.28;5069928;28;20041;-69
2020/12/18 11:35:39;;;;;;;8.57;4.00;;;;;;;8.27;74.07;101794.84;5070661;28;20048;-69
2020/12/18 11:38:05;;;;;;;10.93;4.43;;;;;;;8.49;73.58;101799.31;5069891;28;20472;-69
2020/12/18 11:40:31;;;;;;;12.95;4.95;;;;;;;8.39;73.46;101798.34;5053042;28;20036;-69